• 1
  • 2
  • 1

 

 

WebCam

  
Kamera Halle
Kamera Vorfeld
Wetter EDDS

METAR

EDDS 231420Z 08011KT CAVOK 22/05 Q0998 NOSIG =
EDDS 231100Z 2312/2412 08007KT CAVOK BECMG 2318/2320 VRB03KT PROB30 TEMPO 2404/2407 11015G25KT SHRA BKN070CB BECMG 2408/2410 12006KT


TAF

EDDS 231100Z 2312/2412 08007KT CAVOK BECMG 2318/2320 VRB03KT PROB30 TEMPO 2404/2407 11015G25KT SHRA BKN070CB BECMG 2408/2410 12006KT =


SR/SS

04:15 / 18:23 UTC
(EDSO 23-04-2019)